Latest Weather Observations for Learmonth

IDW60801

Issued at 11:34 am WST Tuesday 29 September 2020 (issued every 10 minutes, with the page automatically refreshed every 10 minutes)

About weather observations | Map of weather stations | Latest weather observations for WA | Other Formats
Station Details ID: 005007 Name: LEARMONTH AIRPORT Lat: -22.24 Lon: 114.10 Height: 5.0 m
Data from the previous 72 hours. | See also: Recent months at Learmonth
Date/Time
WST
Temp
°C
App
Temp
°C
Dew
Point
°C
Rel
Hum
%
Delta-T
°C
Wind Press
QNH
hPa
Press
MSL
hPa
Rain since
9am
mm
Dir  Spd
km/h
Gust
km/h
Spd
kts
Gust
kts
29/11:30am 28.0 22.8 7.3 27 11.1 SE 24 33 13 18 1016.5 1016.4 0.0
29/11:00am 27.6 21.9 6.9 27 11.0 SE 26 35 14 19 1016.8 1016.7 0.0
29/10:30am 26.5 20.9 7.0 29 10.3 SE 26 33 14 18 1017.2 1017.1 0.0
29/10:00am 24.9 19.1 8.0 34 9.0 SSE 28 35 15 19 1017.4 1017.3 0.0
29/09:30am 24.2 18.5 8.2 36 8.5 SSE 28 35 15 19 1017.6 1017.5 0.0
29/09:00am 23.2 17.3 8.9 40 7.6 SSE 30 39 16 21 1017.8 1017.7 0.0
29/08:30am 21.8 16.1 9.7 46 6.5 SSE 30 37 16 20 1017.8 1017.7 0.0
29/08:00am 20.9 16.1 10.4 51 5.7 S 26 37 14 20 1017.7 1017.6 0.0
29/07:30am 19.1 15.6 10.9 59 4.5 S 20 30 11 16 1017.8 1017.7 0.0
29/07:00am 17.4 14.6 11.2 67 3.3 S 17 24 9 13 1017.6 1017.5 0.0
29/06:30am 16.2 13.0 11.2 72 2.7 S 19 24 10 13 1017.1 1017.0 0.0
29/06:00am 15.7 12.5 11.3 75 2.4 S 19 24 10 13 1016.8 1016.7 0.0
29/05:30am 16.1 13.0 11.5 74 2.5 S 19 26 10 14 1016.7 1016.6 0.0
29/05:00am 16.4 13.4 11.8 74 2.5 S 19 26 10 14 1016.1 1016.0 0.0
29/04:30am 16.6 13.6 12.0 74 2.5 SSW 19 26 10 14 1015.9 1015.8 0.0
29/04:00am 16.9 13.8 12.2 74 2.6 SSW 20 28 11 15 1015.8 1015.7 0.0
29/03:30am 17.1 13.7 12.4 74 2.6 SSW 22 32 12 17 1015.7 1015.6 0.0
29/03:00am 17.2 13.5 12.7 75 2.5 SSW 24 32 13 17 1015.7 1015.6 0.0
29/02:30am 17.3 13.6 12.8 75 2.5 SSW 24 32 13 17 1015.9 1015.8 0.0
29/02:00am 17.5 13.5 13.0 75 2.5 SSW 26 33 14 18 1015.9 1015.8 0.0
29/01:30am 17.7 13.7 13.0 74 2.6 SSW 26 32 14 17 1016.3 1016.2 0.0
29/01:00am 18.2 13.5 13.1 72 2.9 SSW 30 35 16 19 1016.6 1016.5 0.0
29/12:30am 18.3 14.2 12.7 70 3.1 SSW 26 37 14 20 1016.9 1016.8 0.0
29/12:00am 18.6 14.0 12.4 67 3.4 SSW 28 35 15 19 1017.2 1017.1 0.0
 
Date/Time
WST
Temp
°C
App
Temp
°C
Dew
Point
°C
Rel
Hum
%
Delta-T
°C
Wind Press
QNH
hPa
Press
MSL
hPa
Rain since
9am
mm
Dir  Spd
km/h
Gust
km/h
Spd
kts
Gust
kts
28/11:30pm 19.0 14.3 12.0 64 3.9 SSW 28 37 15 20 1017.2 1017.1 0.0
28/11:00pm 19.4 13.9 11.7 61 4.2 SSW 32 43 17 23 1017.2 1017.1 0.0
28/10:30pm 19.8 14.1 11.3 58 4.7 SSW 32 41 17 22 1017.2 1017.1 0.0
28/10:00pm 20.1 15.0 11.8 59 4.6 SSW 30 37 16 20 1017.3 1017.2 0.0
28/09:30pm 20.5 15.8 13.2 63 4.2 SSW 30 41 16 22 1017.3 1017.2 0.0
28/09:00pm 20.7 15.5 13.4 63 4.2 SSW 33 41 18 22 1017.1 1017.0 0.0
28/08:30pm 21.0 15.0 13.2 61 4.5 SSW 37 46 20 25 1016.8 1016.7 0.0
28/08:00pm 21.3 16.1 13.5 61 4.5 SSW 33 43 18 23 1016.4 1016.3 0.0
28/07:30pm 21.6 15.4 13.8 61 4.5 SW 39 48 21 26 1016.1 1016.0 0.0
28/07:00pm 22.1 16.2 13.5 58 5.0 SW 37 48 20 26 1015.5 1015.4 0.0
28/06:30pm 22.7 16.9 12.6 53 5.8 SW 35 46 19 25 1015.0 1014.9 0.0
28/06:00pm 23.7 18.0 13.0 51 6.2 SW 35 44 19 24 1014.8 1014.7 0.0
28/05:30pm 24.9 18.3 12.5 46 7.1 SW 39 50 21 27 1014.4 1014.3 0.0
28/05:00pm 26.6 20.8 12.6 42 8.1 SSW 35 48 19 26 1014.1 1014.0 0.0
28/04:37pm 27.3 21.4 11.3 37 9.1 SSW 33 52 18 28 1014.1 1014.0 0.0
28/04:30pm 27.6 21.0 11.2 36 9.3 SW 37 52 20 28 1013.9 1013.8 0.0
28/04:00pm 28.5 22.2 9.7 31 10.5 SW 33 44 18 24 1014.0 1013.9 0.0
28/03:30pm 28.4 21.8 10.1 32 10.3 SSW 35 48 19 26 1014.0 1013.9 0.0
28/03:00pm 30.4 23.1 5.6 21 13.1 S 33 46 18 25 1014.0 1013.9 0.0
28/02:30pm 29.4 21.7 5.5 22 12.5 S 35 56 19 30 1014.3 1014.2 0.0
28/02:25pm 29.8 22.6 5.1 21 12.9 S 32 56 17 30 1014.2 1014.1 0.0
28/02:00pm 29.3 22.3 6.0 23 12.3 S 32 44 17 24 1014.6 1014.5 0.0
28/01:30pm 29.6 23.2 6.9 24 12.2 S 30 44 16 24 1015.0 1014.9 0.0
28/01:00pm 28.6 21.4 6.1 24 11.8 S 33 52 18 28 1015.8 1015.7 0.0
28/12:30pm 28.4 22.4 8.7 29 10.8 SSW 30 48 16 26 1016.3 1016.2 0.0
28/12:00pm 27.6 21.2 8.5 30 10.4 S 32 44 17 24 1016.7 1016.6 0.0
28/11:30am 26.4 20.4 10.1 36 9.1 S 32 44 17 24 1017.1 1017.0 0.0
28/11:00am 26.2 20.1 10.4 37 8.8 S 33 50 18 27 1017.6 1017.5 0.0
28/10:38am 25.2 19.5 11.0 41 8.0 S 32 50 17 27 1017.8 1017.7 0.0
28/10:30am 24.7 18.3 10.6 41 7.8 S 35 44 19 24 1017.9 1017.8 0.0
28/10:09am 24.3 18.5 10.9 43 7.5 S 32 52 17 28 1018.2 1018.1 0.0
28/10:00am 24.2 18.4 11.5 45 7.1 S 33 46 18 25 1018.4 1018.3 0.0
28/09:30am 23.3 16.2 11.0 46 6.8 S 39 50 21 27 1018.4 1018.3 0.0
28/09:00am 23.1 16.6 11.8 49 6.4 S 37 52 20 28 1018.6 1018.5 0.0
28/08:30am 21.4 14.8 11.4 53 5.5 S 37 54 20 29 1018.6 1018.5 0.0
28/08:00am 20.7 14.3 12.1 58 4.8 S 37 50 20 27 1018.6 1018.5 0.0
28/07:30am 19.8 14.2 11.6 59 4.5 S 32 44 17 24 1018.3 1018.2 0.0
28/07:00am 19.0 13.8 11.6 62 4.1 S 30 39 16 21 1017.9 1017.8 0.0
28/06:30am 18.1 13.7 11.7 66 3.5 SSW 26 37 14 20 1017.4 1017.3 0.0
28/06:00am 18.2 13.4 11.5 65 3.7 SSW 28 37 15 20 1017.2 1017.1 0.0
28/05:30am 18.2 14.1 11.5 65 3.7 SSW 24 32 13 17 1016.7 1016.6 0.0
28/05:00am 17.4 14.6 11.4 68 3.3 SSW 17 24 9 13 1016.4 1016.3 0.0
28/04:30am 17.2 14.0 11.2 68 3.2 SW 19 26 10 14 1016.2 1016.1 0.0
28/04:00am 17.7 14.2 11.0 65 3.6 SSW 20 28 11 15 1015.8 1015.7 0.0
28/03:30am 18.2 14.0 11.0 63 3.9 SSW 24 32 13 17 1015.6 1015.5 0.0
28/03:00am 18.2 14.1 11.3 64 3.8 SSW 24 35 13 19 1015.3 1015.2 0.0
28/02:30am 17.9 14.7 11.9 68 3.3 SSW 20 28 11 15 1015.7 1015.6 0.0
28/02:00am 18.3 15.0 11.6 65 3.7 SW 20 30 11 16 1015.9 1015.8 0.0
28/01:30am 18.5 15.8 11.6 64 3.8 SSW 17 22 9 12 1015.6 1015.5 0.0
28/01:00am 19.0 15.4 11.8 63 4.0 SSW 22 30 12 16 1015.5 1015.4 0.0
28/12:30am 19.0 15.6 12.5 66 3.6 SSW 22 30 12 16 1015.6 1015.5 0.0
28/12:00am 19.5 15.4 13.9 70 3.2 SSW 28 35 15 19 1015.8 1015.7 0.0
 
Date/Time
WST
Temp
°C
App
Temp
°C
Dew
Point
°C
Rel
Hum
%
Delta-T
°C
Wind Press
QNH
hPa
Press
MSL
hPa
Rain since
9am
mm
Dir  Spd
km/h
Gust
km/h
Spd
kts
Gust
kts
27/11:30pm 19.8 16.2 14.2 70 3.2 SSW 26 33 14 18 1016.1 1016.0 0.0
27/11:00pm 20.3 15.9 14.2 68 3.5 SSW 30 39 16 21 1016.4 1016.3 0.0
27/10:30pm 20.5 16.2 14.4 68 3.6 SW 30 39 16 21 1016.6 1016.5 0.0
27/10:00pm 20.8 16.4 14.2 66 3.8 SW 30 39 16 21 1016.7 1016.6 0.0
27/09:30pm 21.1 16.3 14.0 64 4.1 SW 32 43 17 23 1016.6 1016.5 0.0
27/09:00pm 21.2 16.5 14.4 65 4.0 SW 32 41 17 22 1016.2 1016.1 0.0
27/08:30pm 21.3 17.1 14.7 66 3.9 SW 30 41 16 22 1015.8 1015.7 0.0
27/08:00pm 21.4 17.2 14.6 65 4.0 SW 30 39 16 21 1015.4 1015.3 0.0
27/07:30pm 21.6 17.0 14.5 64 4.2 SW 32 43 17 23 1015.0 1014.9 0.0
27/07:00pm 22.4 18.6 13.5 57 5.1 SW 26 35 14 19 1014.5 1014.4 0.0
27/06:30pm 23.3 19.4 12.0 49 6.4 SW 24 37 13 20 1014.1 1014.0 0.0
27/06:00pm 24.9 18.9 10.0 39 8.2 SW 32 41 17 22 1013.7 1013.6 0.0
27/05:30pm 26.5 20.2 8.9 33 9.6 SW 32 41 17 22 1013.4 1013.3 0.0
27/05:00pm 27.7 21.3 8.6 30 10.4 SW 32 41 17 22 1013.0 1012.9 0.0
27/04:30pm 29.1 23.6 7.7 26 11.6 SSW 26 33 14 18 1012.7 1012.6 0.0
27/04:00pm 29.8 24.9 5.1 21 12.9 SW 20 30 11 16 1012.7 1012.6 0.0
27/03:30pm 30.3 26.1 5.6 21 13.0 SW 17 30 9 16 1012.5 1012.4 0.0
27/03:00pm 30.4 25.9 6.3 22 12.8 SW 19 30 10 16 1012.4 1012.3 0.0
27/02:30pm 30.4 25.9 6.3 22 12.8 SSW 19 35 10 19 1012.6 1012.5 0.0
27/02:00pm 29.5 25.5 4.9 21 12.7 SW 15 24 8 13 1013.1 1013.0 0.0
27/01:30pm 29.8 26.5 6.5 23 12.4 SW 13 24 7 13 1013.6 1013.5 0.0
27/01:00pm 28.4 25.4 5.9 24 11.8 WSW 11 28 6 15 1014.1 1014.0 0.0
27/12:30pm 27.8 23.9 7.1 27 11.0 SSW 17 26 9 14 1014.8 1014.7 0.0
27/12:00pm 27.5 23.7 7.4 28 10.7 SSE 17 28 9 15 1015.5 1015.4 0.0
27/11:30am 26.7 21.9 7.2 29 10.3 SE 22 33 12 18 1015.9 1015.8 0.0
27/11:00am 26.0 21.1 8.5 33 9.4 SSE 24 35 13 19 1016.2 1016.1 0.0
27/10:30am 25.0 20.4 9.7 38 8.4 SSE 24 33 13 18 1016.6 1016.5 0.0
27/10:00am 23.7 18.4 10.0 42 7.5 SSE 28 35 15 19 1016.7 1016.6 0.0
27/09:30am 23.6 18.5 10.6 44 7.2 SSE 28 35 15 19 1017.1 1017.0 0.0
27/09:00am 22.5 17.7 11.6 50 6.1 SSE 28 37 15 20 1017.1 1017.0 0.0
27/08:30am 21.5 16.9 11.2 52 5.7 S 26 35 14 19 1017.3 1017.2 0.0
27/08:00am 20.3 16.3 11.8 58 4.7 S 24 33 13 18 1017.3 1017.2 0.0
27/07:30am 18.8 15.9 12.8 68 3.4 S 20 30 11 16 1017.2 1017.1 0.0
27/07:00am 16.8 15.5 12.5 76 2.4 SW 11 15 6 8 1017.2 1017.1 0.0
27/06:30am 14.8 12.9 11.9 83 1.6 SW 13 15 7 8 1016.8 1016.7 0.0
27/06:00am 14.7 12.4 11.7 82 1.6 SW 15 17 8 9 1016.3 1016.2 0.0
27/05:30am 15.3 13.4 11.7 79 1.9 SW 13 17 7 9 1016.0 1015.9 0.0
27/05:00am 15.3 13.4 11.9 80 1.8 SW 13 17 7 9 1015.7 1015.6 0.0
27/04:30am 15.4 13.2 12.0 80 1.8 SW 15 19 8 10 1015.2 1015.1 0.0
27/04:00am 15.9 13.3 12.1 78 2.1 SW 17 20 9 11 1015.1 1015.0 0.0
27/03:30am 15.9 13.6 11.9 77 2.2 SW 15 19 8 10 1015.2 1015.1 0.0
27/03:00am 16.0 13.7 11.6 75 2.4 SW 15 19 8 10 1015.2 1015.1 0.0
27/02:30am 16.2 13.8 11.4 73 2.6 SW 15 17 8 9 1015.3 1015.2 0.0
27/02:00am 16.5 14.1 11.4 72 2.8 SW 15 19 8 10 1015.3 1015.2 0.0
27/01:30am 16.7 13.9 11.4 71 2.9 SW 17 20 9 11 1015.2 1015.1 0.0
27/01:00am 17.1 14.0 11.6 70 3.0 SW 19 22 10 12 1015.2 1015.1 0.0
27/12:30am 17.5 14.1 11.3 67 3.4 SW 20 24 11 13 1015.3 1015.2 0.0
27/12:00am 17.9 14.6 11.5 66 3.5 SW 20 26 11 14 1015.6 1015.5 0.0
 
Date/Time
WST
Temp
°C
App
Temp
°C
Dew
Point
°C
Rel
Hum
%
Delta-T
°C
Wind Press
QNH
hPa
Press
MSL
hPa
Rain since
9am
mm
Dir  Spd
km/h
Gust
km/h
Spd
kts
Gust
kts
26/11:30pm 18.2 14.9 11.7 66 3.6 SSW 20 26 11 14 1015.5 1015.4 0.0
26/11:00pm 18.7 15.1 12.0 65 3.7 SSW 22 28 12 15 1015.6 1015.5 0.0
26/10:30pm 19.3 15.8 12.1 63 4.0 SSW 22 28 12 15 1015.8 1015.7 0.0
26/10:00pm 20.0 15.6 11.8 59 4.5 SW 26 32 14 17 1015.7 1015.6 0.0
26/09:30pm 20.4 16.3 11.6 57 4.9 SW 24 33 13 18 1015.4 1015.3 0.0
26/09:00pm 20.5 16.2 12.0 58 4.7 SW 26 33 14 18 1015.4 1015.3 0.0
26/08:30pm 20.8 16.2 12.2 58 4.8 SW 28 39 15 21 1015.0 1014.9 0.0
26/08:00pm 21.0 16.1 12.7 59 4.7 SW 30 39 16 21 1014.7 1014.6 0.0
26/07:30pm 21.3 16.6 13.2 60 4.6 SW 30 39 16 21 1014.3 1014.2 0.0
26/07:00pm 21.9 16.9 13.3 58 4.9 SW 32 41 17 22 1013.8 1013.7 0.0
26/06:30pm 22.5 17.9 12.2 52 5.8 SW 28 37 15 20 1013.4 1013.3 0.0
26/06:00pm 23.8 18.3 12.4 48 6.5 SW 33 41 18 22 1013.0 1012.9 0.0
26/05:30pm 25.2 20.4 11.7 43 7.7 SW 28 35 15 19 1012.6 1012.5 0.0
26/05:00pm 26.1 20.9 11.5 40 8.3 SW 30 41 16 22 1012.4 1012.3 0.0
26/04:30pm 26.6 22.0 11.1 38 8.8 SW 26 39 14 21 1012.2 1012.1 0.0
26/04:00pm 27.4 22.4 11.0 36 9.3 SW 28 37 15 20 1012.2 1012.1 0.0
26/03:30pm 28.5 23.8 10.7 33 10.1 SW 26 39 14 21 1012.1 1012.0 0.0
26/03:00pm 27.8 23.3 10.1 33 9.9 SW 24 35 13 19 1012.1 1012.0 0.0
26/02:30pm 27.8 23.7 10.1 33 9.9 SW 22 35 12 19 1012.4 1012.3 0.0
26/02:00pm 27.9 24.1 11.0 35 9.6 SW 22 35 12 19 1013.0 1012.9 0.0
26/01:30pm 28.0 24.1 10.7 34 9.8 SW 22 32 12 17 1013.4 1013.3 0.0
26/01:00pm 27.4 23.4 10.6 35 9.5 S 22 39 12 21 1013.8 1013.7 0.0
26/12:30pm 27.2 23.6 10.4 35 9.4 SSW 20 41 11 22 1014.3 1014.2 0.0
26/12:00pm 26.1 22.7 11.1 39 8.5 S 20 39 11 21 1014.9 1014.8 0.0

Other formats

Comma delimited format used in spreadsheet applications
http://www.bom.gov.au/fwo/IDW60801/IDW60801.94302.axf

JavaScript Object Notation format (JSON) in row-major order
http://www.bom.gov.au/fwo/IDW60801/IDW60801.94302.json

Data quality

Most of these data are generated automatically and are frequently updated. Quality checks on data are not normally performed. It is possible for incorrect values to appear. Refer to information at About Latest Weather Observations and please check the disclaimer before using these data.